createdAt,value
2023-01-30T00:00:11.862Z,63.70
2023-01-30T00:02:39.178Z,63.70
2023-01-30T00:05:06.676Z,63.40
2023-01-30T00:07:33.634Z,63.30
2023-01-30T00:10:00.577Z,63.20
2023-01-30T00:12:27.565Z,62.90
2023-01-30T00:14:58.256Z,63.10
2023-01-30T00:17:25.319Z,63.20
2023-01-30T00:19:52.332Z,62.90
2023-01-30T00:22:19.264Z,62.50
2023-01-30T00:24:46.560Z,62.70
2023-01-30T00:27:13.517Z,62.40
2023-01-30T00:29:40.505Z,61.80
2023-01-30T00:32:07.626Z,61.90
2023-01-30T00:34:34.777Z,62.10
2023-01-30T00:39:49.711Z,61.50
2023-01-30T00:42:35.337Z,61.20
2023-01-30T00:45:20.939Z,61.30
2023-01-30T00:47:50.462Z,61.60
2023-01-30T00:50:18.616Z,61.50
2023-01-30T00:52:45.578Z,61.30
2023-01-30T00:55:12.601Z,61.20
2023-01-30T00:57:39.722Z,61.20
2023-01-30T01:00:09.169Z,62.30
2023-01-30T01:02:36.188Z,61.10
2023-01-30T01:05:03.609Z,61.20
2023-01-30T01:07:31.146Z,60.90
2023-01-30T01:09:59.221Z,61.00
2023-01-30T01:12:26.369Z,61.10
2023-01-30T01:14:53.461Z,62.10
2023-01-30T01:17:22.004Z,61.40
2023-01-30T01:19:49.040Z,61.50
2023-01-30T01:22:16.128Z,61.80
2023-01-30T01:24:43.161Z,62.00
2023-01-30T01:27:10.283Z,62.30
2023-01-30T01:29:39.431Z,62.50
2023-01-30T01:32:06.436Z,62.60
2023-01-30T01:34:33.524Z,62.80
2023-01-30T01:37:00.575Z,62.90
2023-01-30T01:39:47.592Z,63.00
2023-01-30T01:42:14.672Z,63.20
2023-01-30T01:45:19.719Z,63.30
2023-01-30T01:48:02.305Z,63.30
2023-01-30T01:50:49.648Z,63.50
2023-01-30T01:53:19.478Z,63.50
2023-01-30T01:55:51.344Z,63.70
2023-01-30T01:58:28.467Z,63.80
2023-01-30T02:00:58.223Z,63.90
2023-01-30T02:03:28.639Z,64.00
2023-01-30T02:05:59.026Z,64.90
2023-01-30T02:08:48.550Z,64.20
2023-01-30T02:11:47.556Z,64.40
2023-01-30T02:14:16.054Z,64.50
2023-01-30T02:16:45.340Z,64.60
2023-01-30T02:19:44.676Z,64.70
2023-01-30T02:23:03.068Z,64.80
2023-01-30T02:26:07.244Z,65.00
2023-01-30T02:29:07.743Z,65.10
2023-01-30T02:31:37.739Z,65.30
2023-01-30T02:34:35.924Z,65.50
2023-01-30T02:37:24.925Z,65.60
2023-01-30T02:40:15.175Z,65.70
2023-01-30T02:43:00.572Z,65.80
2023-01-30T02:45:55.103Z,65.90
2023-01-30T02:48:42.050Z,65.90
2023-01-30T02:51:31.881Z,66.00
2023-01-30T02:54:00.343Z,66.20
2023-01-30T02:56:27.806Z,66.20
2023-01-30T02:59:07.070Z,66.50
2023-01-30T03:01:41.105Z,66.50
2023-01-30T03:04:09.289Z,66.90
2023-01-30T03:06:57.599Z,67.00
2023-01-30T03:09:39.680Z,67.40
2023-01-30T03:12:27.353Z,67.50
2023-01-30T03:15:02.238Z,67.60
2023-01-30T03:17:31.897Z,67.80
2023-01-30T03:20:00.259Z,68.00
2023-01-30T03:22:27.373Z,68.00
2023-01-30T03:24:56.112Z,68.10
2023-01-30T03:27:23.827Z,68.10
2023-01-30T03:29:50.987Z,68.20
2023-01-30T03:32:17.984Z,68.40
2023-01-30T03:34:44.993Z,68.40
2023-01-30T03:37:12.170Z,68.40
2023-01-30T03:39:39.364Z,68.50
2023-01-30T03:42:08.103Z,68.30
2023-01-30T03:44:35.162Z,68.50
2023-01-30T03:47:02.275Z,68.50
2023-01-30T03:49:29.307Z,68.60
2023-01-30T03:51:57.299Z,68.50
2023-01-30T03:54:24.372Z,68.50
2023-01-30T03:56:51.532Z,68.50
2023-01-30T03:59:18.707Z,68.70
2023-01-30T04:01:52.538Z,68.70
2023-01-30T04:04:19.743Z,68.70
2023-01-30T04:06:46.883Z,68.60
2023-01-30T04:09:13.979Z,68.50
2023-01-30T04:11:45.133Z,68.50
2023-01-30T04:14:12.429Z,68.50
2023-01-30T04:16:59.794Z,68.50
2023-01-30T04:20:01.656Z,68.60
2023-01-30T04:22:30.876Z,68.50
2023-01-30T04:24:58.394Z,68.40
2023-01-30T04:27:25.625Z,68.30
2023-01-30T04:30:12.770Z,68.30
2023-01-30T04:32:40.771Z,68.20
2023-01-30T04:35:09.923Z,68.10
2023-01-30T04:37:37.049Z,68.20
2023-01-30T04:40:05.010Z,68.30
2023-01-30T04:42:32.187Z,68.60
2023-01-30T04:45:17.953Z,68.40
2023-01-30T04:47:45.559Z,68.30
2023-01-30T04:50:12.522Z,69.00
2023-01-30T04:52:39.976Z,68.00
2023-01-30T04:55:08.816Z,67.90
2023-01-30T04:57:35.958Z,68.00
2023-01-30T05:00:03.992Z,68.00
2023-01-30T05:02:32.031Z,68.20
2023-01-30T05:04:59.081Z,68.50
2023-01-30T05:07:25.954Z,69.70
2023-01-30T05:09:53.053Z,70.70
2023-01-30T05:12:19.937Z,71.40
2023-01-30T05:14:47.038Z,71.80
2023-01-30T05:17:14.011Z,72.20
2023-01-30T05:19:41.065Z,72.50
2023-01-30T05:22:07.975Z,73.00
2023-01-30T05:24:34.911Z,73.30
2023-01-30T05:27:01.883Z,73.40
2023-01-30T05:29:28.868Z,73.30
2023-01-30T05:31:55.893Z,72.90
2023-01-30T05:34:23.117Z,72.90
2023-01-30T05:36:50.049Z,72.70
2023-01-30T05:39:17.117Z,72.60
2023-01-30T05:41:44.154Z,72.30
2023-01-30T05:44:11.823Z,72.20
2023-01-30T05:46:39.817Z,72.20
2023-01-30T05:49:07.598Z,72.00
2023-01-30T05:51:34.595Z,72.00
2023-01-30T05:54:01.642Z,72.00
2023-01-30T05:56:28.609Z,71.90
2023-01-30T05:58:56.719Z,71.70
2023-01-30T06:01:23.966Z,71.30
2023-01-30T06:03:51.167Z,71.20
2023-01-30T06:06:18.695Z,71.10
2023-01-30T06:08:45.909Z,71.20
2023-01-30T06:11:17.392Z,71.20
2023-01-30T06:13:44.864Z,71.10
2023-01-30T06:16:13.810Z,71.10
2023-01-30T06:18:41.035Z,71.00
2023-01-30T06:21:08.642Z,70.90
2023-01-30T06:23:36.021Z,70.70
2023-01-30T06:26:04.980Z,70.70
2023-01-30T06:28:33.074Z,70.70
2023-01-30T06:31:00.156Z,70.90
2023-01-30T06:33:27.397Z,71.40
2023-01-30T06:35:54.386Z,72.50
2023-01-30T06:38:21.531Z,73.40
2023-01-30T06:40:50.370Z,74.00
2023-01-30T06:43:17.936Z,74.20
2023-01-30T06:45:45.143Z,74.80
2023-01-30T06:48:12.194Z,75.50
2023-01-30T06:50:39.305Z,75.90
2023-01-30T06:53:08.537Z,76.60
2023-01-30T06:55:36.458Z,77.00
2023-01-30T06:58:12.536Z,77.50
2023-01-30T07:00:41.203Z,77.90
2023-01-30T07:03:13.785Z,78.30
2023-01-30T07:05:41.822Z,78.60
2023-01-30T07:08:09.657Z,79.00
2023-01-30T07:10:36.960Z,79.30
2023-01-30T07:13:07.155Z,79.50
2023-01-30T07:15:34.430Z,79.80
2023-01-30T07:18:01.965Z,80.00
2023-01-30T07:20:31.308Z,80.30
2023-01-30T07:22:58.615Z,80.50
2023-01-30T07:25:27.197Z,80.40
2023-01-30T07:27:56.978Z,80.40
2023-01-30T07:30:24.487Z,80.60
2023-01-30T07:32:52.887Z,80.70
2023-01-30T07:35:20.520Z,80.70
2023-01-30T07:37:48.872Z,80.80
2023-01-30T07:40:16.956Z,80.90
2023-01-30T07:42:44.412Z,80.80
2023-01-30T07:45:12.214Z,80.90
2023-01-30T07:47:39.197Z,80.80
2023-01-30T07:50:06.893Z,80.70
2023-01-30T07:52:33.943Z,80.60
2023-01-30T07:55:01.674Z,80.50
2023-01-30T07:57:29.740Z,80.30
2023-01-30T07:59:56.725Z,80.40
2023-01-30T08:02:23.874Z,80.50
2023-01-30T08:04:50.845Z,80.50
2023-01-30T08:07:17.907Z,80.50
2023-01-30T08:09:45.153Z,80.40
2023-01-30T08:12:12.420Z,80.40
2023-01-30T08:14:39.395Z,80.30
2023-01-30T08:17:06.510Z,80.10
2023-01-30T08:19:33.443Z,80.20
2023-01-30T08:22:00.600Z,80.30
2023-01-30T08:24:27.553Z,80.40
2023-01-30T08:26:54.585Z,80.40
2023-01-30T08:29:21.857Z,80.50
2023-01-30T08:31:49.056Z,80.60
2023-01-30T08:34:16.100Z,80.80
2023-01-30T08:36:46.649Z,81.00
2023-01-30T08:39:14.278Z,81.00
2023-01-30T08:41:43.271Z,81.00
2023-01-30T08:44:10.997Z,81.00
2023-01-30T08:46:39.101Z,80.90
2023-01-30T08:49:06.850Z,80.90
2023-01-30T08:51:34.013Z,80.80
2023-01-30T08:54:01.151Z,81.00
2023-01-30T08:56:28.253Z,81.10
2023-01-30T08:58:55.347Z,81.10
2023-01-30T09:01:22.527Z,81.00
2023-01-30T09:03:49.704Z,80.90
2023-01-30T09:06:16.926Z,80.60
2023-01-30T09:08:43.975Z,80.40
2023-01-30T09:11:12.034Z,80.40
2023-01-30T09:13:43.546Z,80.50
2023-01-30T09:16:13.713Z,80.40
2023-01-30T09:18:42.543Z,80.10
2023-01-30T09:21:11.236Z,79.90
2023-01-30T09:23:38.659Z,80.00
2023-01-30T09:26:06.807Z,79.60
2023-01-30T09:28:34.491Z,78.90
2023-01-30T09:31:02.362Z,79.00
2023-01-30T09:33:30.086Z,77.50
2023-01-30T09:35:57.201Z,76.50
2023-01-30T09:38:24.288Z,75.60
2023-01-30T09:41:15.799Z,75.40
2023-01-30T09:43:51.948Z,76.10
2023-01-30T09:46:29.554Z,75.90
2023-01-30T09:49:16.357Z,75.80
2023-01-30T09:51:58.735Z,75.70
2023-01-30T09:54:36.880Z,75.70
2023-01-30T09:57:21.732Z,75.70
2023-01-30T09:59:53.982Z,75.80
2023-01-30T10:02:24.986Z,76.10
2023-01-30T10:05:01.360Z,76.10
2023-01-30T10:07:55.244Z,76.20
2023-01-30T10:10:31.366Z,76.90
2023-01-30T10:13:35.871Z,76.80
2023-01-30T10:16:12.052Z,76.20
2023-01-30T10:18:58.271Z,75.10
2023-01-30T10:21:50.286Z,74.40
2023-01-30T10:24:29.249Z,73.70
2023-01-30T10:26:57.020Z,73.40
2023-01-30T10:29:30.483Z,73.50
2023-01-30T10:32:04.711Z,73.60
2023-01-30T10:34:35.509Z,73.90
2023-01-30T10:37:07.854Z,73.80
2023-01-30T10:39:49.708Z,73.60
2023-01-30T10:42:28.588Z,73.60
2023-01-30T10:45:03.100Z,73.60
2023-01-30T10:47:54.408Z,73.50
2023-01-30T10:50:48.269Z,73.40
2023-01-30T10:53:26.637Z,73.20
2023-01-30T10:56:05.121Z,73.20
2023-01-30T10:59:19.648Z,73.40
2023-01-30T11:01:55.891Z,73.50
2023-01-30T11:04:31.414Z,73.40
2023-01-30T11:07:03.422Z,73.50
2023-01-30T11:09:47.250Z,73.50
2023-01-30T11:12:15.334Z,73.50
2023-01-30T11:15:04.265Z,73.50
2023-01-30T11:17:35.053Z,73.00
2023-01-30T11:20:24.278Z,72.50
2023-01-30T11:23:09.338Z,72.30
2023-01-30T11:25:52.851Z,72.00
2023-01-30T11:28:26.906Z,72.10
2023-01-30T11:31:00.204Z,72.20
2023-01-30T11:33:38.135Z,72.20
2023-01-30T11:36:08.467Z,72.20
2023-01-30T11:38:40.296Z,72.40
2023-01-30T11:41:11.159Z,72.60
2023-01-30T11:43:42.219Z,72.90
2023-01-30T11:46:13.493Z,72.80
2023-01-30T11:49:02.477Z,72.70
2023-01-30T11:51:45.409Z,72.90
2023-01-30T11:54:19.930Z,73.00
2023-01-30T11:56:58.263Z,73.00
2023-01-30T11:59:32.202Z,73.00
2023-01-30T12:02:04.473Z,73.00
2023-01-30T12:04:31.726Z,72.90
2023-01-30T12:07:08.905Z,73.00
2023-01-30T12:09:40.728Z,73.40
2023-01-30T12:12:35.289Z,73.40
2023-01-30T12:15:11.790Z,73.20
2023-01-30T12:17:52.655Z,73.00
2023-01-30T12:20:19.982Z,73.30
2023-01-30T12:23:16.998Z,73.60
2023-01-30T12:26:11.764Z,73.20
2023-01-30T12:29:05.531Z,73.10
2023-01-30T12:31:43.268Z,73.10
2023-01-30T12:34:10.950Z,72.90
2023-01-30T12:37:32.438Z,72.40
2023-01-30T12:40:10.027Z,71.90
2023-01-30T12:42:55.242Z,71.50
2023-01-30T12:45:31.681Z,71.80
2023-01-30T12:48:23.460Z,71.20
2023-01-30T12:51:02.116Z,70.80
2023-01-30T12:53:40.090Z,70.30
2023-01-30T12:56:09.787Z,69.90
2023-01-30T12:58:42.516Z,69.80
2023-01-30T13:01:25.126Z,69.50
2023-01-30T13:03:58.526Z,69.50
2023-01-30T13:06:38.241Z,69.50
2023-01-30T13:09:24.223Z,69.80
2023-01-30T13:12:00.432Z,70.10
2023-01-30T13:14:38.928Z,70.60
2023-01-30T13:17:44.765Z,70.70
2023-01-30T13:20:28.836Z,70.70
2023-01-30T13:23:13.148Z,70.80
2023-01-30T13:25:52.532Z,71.00
2023-01-30T13:28:26.047Z,70.70
2023-01-30T13:30:55.586Z,70.50
2023-01-30T13:33:26.553Z,70.50
2023-01-30T13:36:02.634Z,70.70
2023-01-30T13:38:32.072Z,70.40
2023-01-30T13:41:02.304Z,70.30
2023-01-30T13:43:36.652Z,70.00
2023-01-30T13:46:09.546Z,69.50
2023-01-30T13:48:51.944Z,69.50
2023-01-30T13:51:40.435Z,69.50
2023-01-30T13:54:26.136Z,69.20
2023-01-30T13:56:53.150Z,69.10
2023-01-30T13:59:29.103Z,68.90
2023-01-30T14:01:59.229Z,68.90
2023-01-30T14:04:41.354Z,69.10
2023-01-30T14:07:09.837Z,69.00
2023-01-30T14:09:37.421Z,69.00
2023-01-30T14:12:06.933Z,68.90
2023-01-30T14:14:40.911Z,68.90
2023-01-30T14:17:15.393Z,69.00
2023-01-30T14:20:17.216Z,68.80
2023-01-30T14:22:55.517Z,68.80
2023-01-30T14:25:25.522Z,68.80
2023-01-30T14:28:15.596Z,68.90
2023-01-30T14:30:50.543Z,69.10
2023-01-30T14:33:23.753Z,68.90
2023-01-30T14:36:02.744Z,68.90
2023-01-30T14:38:34.350Z,69.10
2023-01-30T14:41:01.413Z,69.20
2023-01-30T14:43:43.713Z,69.40
2023-01-30T14:46:20.067Z,69.30
2023-01-30T14:49:00.948Z,69.40
2023-01-30T14:51:40.520Z,69.40
2023-01-30T14:54:14.037Z,69.30
2023-01-30T14:56:50.649Z,69.40
2023-01-30T14:59:17.622Z,70.00
2023-01-30T15:01:55.412Z,70.50
2023-01-30T15:04:26.213Z,70.70
2023-01-30T15:06:54.746Z,71.20
2023-01-30T15:09:25.425Z,72.00
2023-01-30T15:12:21.063Z,72.40
2023-01-30T15:15:39.792Z,73.30
2023-01-30T15:18:28.336Z,74.30
2023-01-30T15:21:00.978Z,74.60
2023-01-30T15:23:46.822Z,75.00
2023-01-30T15:26:44.389Z,75.60
2023-01-30T15:29:53.036Z,75.90
2023-01-30T15:32:24.221Z,76.20
2023-01-30T15:34:57.775Z,76.50
2023-01-30T15:37:32.537Z,76.60
2023-01-30T15:40:15.002Z,76.60
2023-01-30T15:42:53.539Z,76.40
2023-01-30T15:45:30.307Z,76.30
2023-01-30T15:48:19.173Z,76.40
2023-01-30T15:50:55.066Z,76.50
2023-01-30T15:53:31.166Z,76.40
2023-01-30T15:56:00.632Z,76.40
2023-01-30T15:58:29.047Z,76.50
2023-01-30T16:00:59.807Z,76.20
2023-01-30T16:03:31.563Z,76.10
2023-01-30T16:05:59.276Z,75.90
2023-01-30T16:08:32.094Z,76.00
2023-01-30T16:11:00.909Z,75.90
2023-01-30T16:13:29.985Z,75.90
2023-01-30T16:16:08.228Z,75.80
2023-01-30T16:18:38.388Z,75.90
2023-01-30T16:21:08.695Z,76.20
2023-01-30T16:23:38.780Z,76.30
2023-01-30T16:26:14.353Z,76.50
2023-01-30T16:28:41.375Z,76.50
2023-01-30T16:31:11.182Z,76.50
2023-01-30T16:33:38.903Z,76.50
2023-01-30T16:36:27.886Z,76.50
2023-01-30T16:38:55.986Z,76.80
2023-01-30T16:41:39.498Z,76.80
2023-01-30T16:44:20.214Z,76.70
2023-01-30T16:46:50.315Z,76.80
2023-01-30T16:49:22.984Z,76.80
2023-01-30T16:51:51.172Z,76.70
2023-01-30T16:54:25.296Z,76.60
2023-01-30T16:56:55.964Z,76.70
2023-01-30T16:59:34.725Z,76.60
2023-01-30T17:02:05.572Z,76.30
2023-01-30T17:04:35.812Z,76.20
2023-01-30T17:07:04.802Z,76.10
2023-01-30T17:09:36.812Z,75.90
2023-01-30T17:12:43.227Z,76.10
2023-01-30T17:15:11.875Z,76.60
2023-01-30T17:17:39.938Z,76.70
2023-01-30T17:20:11.068Z,76.80
2023-01-30T17:22:41.529Z,76.90
2023-01-30T17:25:31.175Z,76.80
2023-01-30T17:27:59.580Z,77.00
2023-01-30T17:30:26.685Z,77.20
2023-01-30T17:32:53.676Z,77.50
2023-01-30T17:35:21.159Z,77.70
2023-01-30T17:37:59.682Z,77.60
2023-01-30T17:40:40.359Z,77.60
2023-01-30T17:43:08.586Z,77.60
2023-01-30T17:45:39.874Z,78.50
2023-01-30T17:48:07.624Z,77.60
2023-01-30T17:50:36.598Z,77.50
2023-01-30T17:53:04.212Z,77.60
2023-01-30T17:55:32.870Z,77.60
2023-01-30T17:58:00.735Z,77.70
2023-01-30T18:00:28.860Z,77.80
2023-01-30T18:02:56.041Z,77.80
2023-01-30T18:05:23.557Z,77.70
2023-01-30T18:07:50.675Z,77.60
2023-01-30T18:10:20.727Z,77.70
2023-01-30T18:12:47.847Z,77.70
2023-01-30T18:15:16.085Z,77.60
2023-01-30T18:17:47.337Z,77.50
2023-01-30T18:20:17.672Z,77.40
2023-01-30T18:22:45.452Z,77.50
2023-01-30T18:25:13.778Z,77.30
2023-01-30T18:27:44.085Z,77.20
2023-01-30T18:30:17.475Z,77.00
2023-01-30T18:32:52.858Z,76.90
2023-01-30T18:35:22.239Z,76.80
2023-01-30T18:37:50.025Z,76.70
2023-01-30T18:40:18.504Z,76.50
2023-01-30T18:42:47.229Z,76.20
2023-01-30T18:45:14.555Z,76.10
2023-01-30T18:47:41.555Z,75.90
2023-01-30T18:50:09.255Z,75.70
2023-01-30T18:52:36.751Z,75.60
2023-01-30T18:55:04.223Z,75.30
2023-01-30T18:57:31.587Z,75.00
2023-01-30T18:59:58.625Z,74.80
2023-01-30T19:02:25.664Z,74.50
2023-01-30T19:04:52.761Z,74.30
2023-01-30T19:07:19.753Z,74.10
2023-01-30T19:09:47.469Z,74.00
2023-01-30T19:12:32.994Z,73.80
2023-01-30T19:15:01.440Z,73.50
2023-01-30T19:17:29.508Z,73.40
2023-01-30T19:19:57.492Z,73.20
2023-01-30T19:22:24.887Z,73.00
2023-01-30T19:24:51.912Z,72.60
2023-01-30T19:27:19.022Z,72.50
2023-01-30T19:29:46.115Z,72.30
2023-01-30T19:32:13.595Z,72.40
2023-01-30T19:34:40.891Z,72.20
2023-01-30T19:37:07.925Z,72.00
2023-01-30T19:39:34.947Z,72.00
2023-01-30T19:42:01.976Z,72.20
2023-01-30T19:44:28.986Z,72.20
2023-01-30T19:46:57.053Z,72.10
2023-01-30T19:49:23.944Z,71.90
2023-01-30T19:51:51.175Z,71.70
2023-01-30T19:54:18.907Z,71.50
2023-01-30T19:56:48.466Z,71.60
2023-01-30T19:59:16.734Z,71.40
2023-01-30T20:01:44.025Z,71.50
2023-01-30T20:04:11.314Z,71.50
2023-01-30T20:06:42.974Z,71.30
2023-01-30T20:09:13.231Z,71.30
2023-01-30T20:11:42.205Z,71.30
2023-01-30T20:14:10.857Z,71.30
2023-01-30T20:16:38.367Z,71.20
2023-01-30T20:19:14.127Z,71.20
2023-01-30T20:21:41.830Z,71.30
2023-01-30T20:24:14.148Z,71.20
2023-01-30T20:26:41.766Z,71.30
2023-01-30T20:29:10.153Z,71.30
2023-01-30T20:31:40.511Z,71.20
2023-01-30T20:34:12.439Z,71.20
2023-01-30T20:36:39.478Z,71.20
2023-01-30T20:39:08.024Z,71.10
2023-01-30T20:41:37.588Z,71.00
2023-01-30T20:44:07.284Z,70.80
2023-01-30T20:46:43.109Z,70.70
2023-01-30T20:49:15.220Z,70.30
2023-01-30T20:51:42.741Z,70.30
2023-01-30T20:54:11.666Z,70.20
2023-01-30T20:56:50.392Z,70.10
2023-01-30T20:59:20.866Z,70.20
2023-01-30T21:01:47.849Z,70.40
2023-01-30T21:04:16.372Z,70.40
2023-01-30T21:06:46.161Z,70.40
2023-01-30T21:09:19.656Z,70.50
2023-01-30T21:11:47.264Z,70.50
2023-01-30T21:14:16.268Z,70.50
2023-01-30T21:16:43.552Z,70.50
2023-01-30T21:19:15.203Z,70.50
2023-01-30T21:21:54.546Z,70.50
2023-01-30T21:24:25.572Z,70.60
2023-01-30T21:26:53.605Z,70.70
2023-01-30T21:29:24.852Z,70.80
2023-01-30T21:31:52.312Z,70.90
2023-01-30T21:34:19.461Z,71.20
2023-01-30T21:37:09.230Z,71.30
2023-01-30T21:39:55.206Z,71.40
2023-01-30T21:42:40.886Z,71.70
2023-01-30T21:45:08.481Z,71.90
2023-01-30T21:47:37.023Z,72.30
2023-01-30T21:50:04.765Z,72.80
2023-01-30T21:52:33.491Z,73.00
2023-01-30T21:55:00.920Z,73.10
2023-01-30T21:57:27.967Z,73.20
2023-01-30T21:59:55.552Z,73.10
2023-01-30T22:02:22.695Z,73.30
2023-01-30T22:04:49.898Z,73.70
2023-01-30T22:07:17.081Z,74.70
2023-01-30T22:09:44.430Z,74.90
2023-01-30T22:12:11.416Z,74.80
2023-01-30T22:14:38.812Z,74.70
2023-01-30T22:17:06.304Z,75.00
2023-01-30T22:19:35.417Z,75.40
2023-01-30T22:22:03.452Z,75.80
2023-01-30T22:24:30.637Z,76.00
2023-01-30T22:26:57.669Z,76.00
2023-01-30T22:29:24.817Z,76.00
2023-01-30T22:31:51.901Z,75.90
2023-01-30T22:34:19.246Z,75.90
2023-01-30T22:36:47.911Z,75.80
2023-01-30T22:39:14.880Z,75.90
2023-01-30T22:41:42.117Z,75.50
2023-01-30T22:44:10.457Z,75.40
2023-01-30T22:46:39.717Z,75.30
2023-01-30T22:49:08.372Z,75.10
2023-01-30T22:51:38.524Z,75.00
2023-01-30T22:54:11.875Z,74.90
2023-01-30T22:56:44.645Z,74.60
2023-01-30T22:59:12.204Z,74.50
2023-01-30T23:01:47.996Z,74.40
2023-01-30T23:04:16.264Z,74.30
2023-01-30T23:06:44.246Z,74.30
2023-01-30T23:09:15.305Z,74.40
2023-01-30T23:12:14.172Z,74.50
2023-01-30T23:14:42.938Z,74.60
2023-01-30T23:17:29.043Z,74.70
2023-01-30T23:19:56.283Z,74.80
2023-01-30T23:22:23.348Z,74.90
2023-01-30T23:24:51.425Z,74.90
2023-01-30T23:27:19.152Z,74.90
2023-01-30T23:29:46.362Z,74.80
2023-01-30T23:32:13.409Z,74.60
2023-01-30T23:34:40.403Z,74.50
2023-01-30T23:37:07.870Z,74.30
2023-01-30T23:39:35.425Z,74.30
2023-01-30T23:42:02.953Z,74.10
2023-01-30T23:44:29.983Z,74.00
2023-01-30T23:46:56.994Z,73.90
2023-01-30T23:49:24.081Z,73.90
2023-01-30T23:51:50.950Z,73.90
2023-01-30T23:54:18.164Z,73.90
2023-01-30T23:56:45.238Z,74.00
2023-01-30T23:59:12.863Z,74.00
